sensor_id;sensor_type;location;lat;lon;timestamp;temperature;humidity
78896;HTU21D;68284;59.124;37.910;2023-04-15T00:02:16;1.64;30.06
78896;HTU21D;68284;59.124;37.910;2023-04-15T00:04:45;1.63;29.99
78896;HTU21D;68284;59.124;37.910;2023-04-15T00:07:11;1.64;29.97
78896;HTU21D;68284;59.124;37.910;2023-04-15T00:09:38;1.63;30.00
78896;HTU21D;68284;59.124;37.910;2023-04-15T00:12:04;1.64;30.01
78896;HTU21D;68284;59.124;37.910;2023-04-15T00:14:32;1.63;30.01
78896;HTU21D;68284;59.124;37.910;2023-04-15T00:17:02;1.62;30.02
78896;HTU21D;68284;59.124;37.910;2023-04-15T00:19:30;1.61;30.04
78896;HTU21D;68284;59.124;37.910;2023-04-15T00:21:56;1.58;30.05
78896;HTU21D;68284;59.124;37.910;2023-04-15T00:24:23;1.58;30.06
78896;HTU21D;68284;59.124;37.910;2023-04-15T00:26:49;1.57;30.11
78896;HTU21D;68284;59.124;37.910;2023-04-15T00:29:15;1.57;30.09
78896;HTU21D;68284;59.124;37.910;2023-04-15T00:31:46;1.58;30.08
78896;HTU21D;68284;59.124;37.910;2023-04-15T00:34:13;1.58;30.05
78896;HTU21D;68284;59.124;37.910;2023-04-15T00:36:42;1.58;30.00
78896;HTU21D;68284;59.124;37.910;2023-04-15T00:39:09;1.56;30.00
78896;HTU21D;68284;59.124;37.910;2023-04-15T00:41:36;1.56;30.04
78896;HTU21D;68284;59.124;37.910;2023-04-15T00:44:06;1.55;30.07
78896;HTU21D;68284;59.124;37.910;2023-04-15T00:46:35;1.55;30.13
78896;HTU21D;68284;59.124;37.910;2023-04-15T00:49:03;1.55;30.16
78896;HTU21D;68284;59.124;37.910;2023-04-15T00:51:32;1.55;30.21
78896;HTU21D;68284;59.124;37.910;2023-04-15T00:54:03;1.54;30.27
78896;HTU21D;68284;59.124;37.910;2023-04-15T00:56:33;1.53;30.35
78896;HTU21D;68284;59.124;37.910;2023-04-15T00:59:01;1.51;30.39
78896;HTU21D;68284;59.124;37.910;2023-04-15T01:01:28;1.50;30.45
78896;HTU21D;68284;59.124;37.910;2023-04-15T01:03:56;1.48;30.51
78896;HTU21D;68284;59.124;37.910;2023-04-15T01:06:26;1.48;30.54
78896;HTU21D;68284;59.124;37.910;2023-04-15T01:08:53;1.45;30.58
78896;HTU21D;68284;59.124;37.910;2023-04-15T01:11:20;1.45;30.43
78896;HTU21D;68284;59.124;37.910;2023-04-15T01:13:51;1.42;30.51
78896;HTU21D;68284;59.124;37.910;2023-04-15T01:16:18;1.40;30.59
78896;HTU21D;68284;59.124;37.910;2023-04-15T01:18:45;1.38;30.68
78896;HTU21D;68284;59.124;37.910;2023-04-15T01:21:12;1.37;30.77
78896;HTU21D;68284;59.124;37.910;2023-04-15T01:23:38;1.35;30.85
78896;HTU21D;68284;59.124;37.910;2023-04-15T01:26:09;1.35;30.99
78896;HTU21D;68284;59.124;37.910;2023-04-15T01:28:36;1.33;31.04
78896;HTU21D;68284;59.124;37.910;2023-04-15T01:31:09;1.32;31.14
78896;HTU21D;68284;59.124;37.910;2023-04-15T01:33:39;1.32;31.22
78896;HTU21D;68284;59.124;37.910;2023-04-15T01:36:26;1.31;31.24
78896;HTU21D;68284;59.124;37.910;2023-04-15T01:38:55;1.29;31.30
78896;HTU21D;68284;59.124;37.910;2023-04-15T01:41:26;1.28;31.44
78896;HTU21D;68284;59.124;37.910;2023-04-15T01:43:54;1.26;31.48
78896;HTU21D;68284;59.124;37.910;2023-04-15T01:46:22;1.25;31.57
78896;HTU21D;68284;59.124;37.910;2023-04-15T01:48:50;1.24;31.66
78896;HTU21D;68284;59.124;37.910;2023-04-15T01:51:17;1.22;31.73
78896;HTU21D;68284;59.124;37.910;2023-04-15T01:53:45;1.20;31.84
78896;HTU21D;68284;59.124;37.910;2023-04-15T01:56:13;1.19;31.92
78896;HTU21D;68284;59.124;37.910;2023-04-15T01:58:40;1.16;32.00
78896;HTU21D;68284;59.124;37.910;2023-04-15T02:01:09;1.16;32.07
78896;HTU21D;68284;59.124;37.910;2023-04-15T02:03:38;1.13;32.15
78896;HTU21D;68284;59.124;37.910;2023-04-15T02:06:05;1.11;32.25
78896;HTU21D;68284;59.124;37.910;2023-04-15T02:08:33;1.09;32.35
78896;HTU21D;68284;59.124;37.910;2023-04-15T02:11:00;1.08;32.44
78896;HTU21D;68284;59.124;37.910;2023-04-15T02:13:29;1.06;32.56
78896;HTU21D;68284;59.124;37.910;2023-04-15T02:15:57;1.03;32.68
78896;HTU21D;68284;59.124;37.910;2023-04-15T02:18:26;1.04;32.80
78896;HTU21D;68284;59.124;37.910;2023-04-15T02:20:53;1.02;32.91
78896;HTU21D;68284;59.124;37.910;2023-04-15T02:23:23;1.02;32.99
78896;HTU21D;68284;59.124;37.910;2023-04-15T02:25:53;1.01;33.09
78896;HTU21D;68284;59.124;37.910;2023-04-15T02:28:20;0.99;33.23
78896;HTU21D;68284;59.124;37.910;2023-04-15T02:30:48;0.98;33.36
78896;HTU21D;68284;59.124;37.910;2023-04-15T02:33:20;0.99;33.48
78896;HTU21D;68284;59.124;37.910;2023-04-15T02:35:49;0.99;33.62
78896;HTU21D;68284;59.124;37.910;2023-04-15T02:38:16;0.99;33.76
78896;HTU21D;68284;59.124;37.910;2023-04-15T02:40:44;1.01;33.84
78896;HTU21D;68284;59.124;37.910;2023-04-15T02:43:13;1.03;33.87
78896;HTU21D;68284;59.124;37.910;2023-04-15T02:45:40;1.06;33.90
78896;HTU21D;68284;59.124;37.910;2023-04-15T02:48:11;1.10;33.92
78896;HTU21D;68284;59.124;37.910;2023-04-15T02:50:38;1.12;33.95
78896;HTU21D;68284;59.124;37.910;2023-04-15T02:53:07;1.17;33.97
78896;HTU21D;68284;59.124;37.910;2023-04-15T02:55:36;1.21;33.95
78896;HTU21D;68284;59.124;37.910;2023-04-15T02:58:03;1.26;33.92
78896;HTU21D;68284;59.124;37.910;2023-04-15T03:00:31;1.29;33.95
78896;HTU21D;68284;59.124;37.910;2023-04-15T03:03:03;1.35;33.92
78896;HTU21D;68284;59.124;37.910;2023-04-15T03:05:31;1.41;33.80
78896;HTU21D;68284;59.124;37.910;2023-04-15T03:07:59;1.48;33.73
78896;HTU21D;68284;59.124;37.910;2023-04-15T03:10:27;1.54;33.65
78896;HTU21D;68284;59.124;37.910;2023-04-15T03:12:55;1.61;33.60
78896;HTU21D;68284;59.124;37.910;2023-04-15T03:15:26;1.64;33.57
78896;HTU21D;68284;59.124;37.910;2023-04-15T03:17:55;1.67;33.51
78896;HTU21D;68284;59.124;37.910;2023-04-15T03:20:22;1.72;33.45
78896;HTU21D;68284;59.124;37.910;2023-04-15T03:22:50;1.78;33.41
78896;HTU21D;68284;59.124;37.910;2023-04-15T03:25:19;1.83;33.36
78896;HTU21D;68284;59.124;37.910;2023-04-15T03:27:47;1.90;33.27
78896;HTU21D;68284;59.124;37.910;2023-04-15T03:30:15;1.98;33.19
78896;HTU21D;68284;59.124;37.910;2023-04-15T03:32:43;2.06;33.11
78896;HTU21D;68284;59.124;37.910;2023-04-15T03:35:11;2.14;33.01
78896;HTU21D;68284;59.124;37.910;2023-04-15T03:37:40;2.22;32.89
78896;HTU21D;68284;59.124;37.910;2023-04-15T03:40:08;2.28;32.80
78896;HTU21D;68284;59.124;37.910;2023-04-15T03:42:35;2.37;32.69
78896;HTU21D;68284;59.124;37.910;2023-04-15T03:45:03;2.45;32.57
78896;HTU21D;68284;59.124;37.910;2023-04-15T03:47:31;2.52;32.48
78896;HTU21D;68284;59.124;37.910;2023-04-15T03:50:00;2.64;32.37
78896;HTU21D;68284;59.124;37.910;2023-04-15T03:52:27;2.69;32.25
78896;HTU21D;68284;59.124;37.910;2023-04-15T03:54:55;2.76;32.12
78896;HTU21D;68284;59.124;37.910;2023-04-15T03:57:22;2.83;32.05
78896;HTU21D;68284;59.124;37.910;2023-04-15T03:59:49;2.88;31.96
78896;HTU21D;68284;59.124;37.910;2023-04-15T04:02:17;2.94;31.86
78896;HTU21D;68284;59.124;37.910;2023-04-15T04:04:44;2.98;31.80
78896;HTU21D;68284;59.124;37.910;2023-04-15T04:07:15;3.03;31.73
78896;HTU21D;68284;59.124;37.910;2023-04-15T04:09:43;3.09;31.64
78896;HTU21D;68284;59.124;37.910;2023-04-15T04:12:10;3.12;31.50
78896;HTU21D;68284;59.124;37.910;2023-04-15T04:14:39;3.16;31.34
78896;HTU21D;68284;59.124;37.910;2023-04-15T04:17:06;3.20;31.16
78896;HTU21D;68284;59.124;37.910;2023-04-15T04:19:34;3.25;30.96
78896;HTU21D;68284;59.124;37.910;2023-04-15T04:22:02;3.31;30.74
78896;HTU21D;68284;59.124;37.910;2023-04-15T04:24:30;3.38;30.53
78896;HTU21D;68284;59.124;37.910;2023-04-15T04:26:59;3.45;30.34
78896;HTU21D;68284;59.124;37.910;2023-04-15T04:29:28;3.52;30.19
78896;HTU21D;68284;59.124;37.910;2023-04-15T04:31:55;3.55;30.06
78896;HTU21D;68284;59.124;37.910;2023-04-15T04:34:23;3.60;29.96
78896;HTU21D;68284;59.124;37.910;2023-04-15T04:36:51;3.63;29.84
78896;HTU21D;68284;59.124;37.910;2023-04-15T04:39:18;3.70;29.75
78896;HTU21D;68284;59.124;37.910;2023-04-15T04:41:46;3.76;29.66
78896;HTU21D;68284;59.124;37.910;2023-04-15T04:44:14;3.83;29.58
78896;HTU21D;68284;59.124;37.910;2023-04-15T04:46:42;3.90;29.54
78896;HTU21D;68284;59.124;37.910;2023-04-15T04:49:11;4.00;29.44
78896;HTU21D;68284;59.124;37.910;2023-04-15T04:51:38;4.12;29.29
78896;HTU21D;68284;59.124;37.910;2023-04-15T04:54:05;4.21;29.13
78896;HTU21D;68284;59.124;37.910;2023-04-15T04:56:33;4.31;29.01
78896;HTU21D;68284;59.124;37.910;2023-04-15T04:59:01;4.38;28.88
78896;HTU21D;68284;59.124;37.910;2023-04-15T05:01:30;4.47;28.79
78896;HTU21D;68284;59.124;37.910;2023-04-15T05:03:58;4.54;28.68
78896;HTU21D;68284;59.124;37.910;2023-04-15T05:06:26;4.64;28.60
78896;HTU21D;68284;59.124;37.910;2023-04-15T05:08:53;4.71;28.48
78896;HTU21D;68284;59.124;37.910;2023-04-15T05:11:24;4.76;28.41
78896;HTU21D;68284;59.124;37.910;2023-04-15T05:13:52;4.81;28.39
78896;HTU21D;68284;59.124;37.910;2023-04-15T05:16:20;4.89;28.34
78896;HTU21D;68284;59.124;37.910;2023-04-15T05:18:48;4.95;28.24
78896;HTU21D;68284;59.124;37.910;2023-04-15T05:21:16;5.03;28.10
78896;HTU21D;68284;59.124;37.910;2023-04-15T05:23:44;5.10;27.94
78896;HTU21D;68284;59.124;37.910;2023-04-15T05:26:14;5.19;27.87
78896;HTU21D;68284;59.124;37.910;2023-04-15T05:28:41;5.25;27.82
78896;HTU21D;68284;59.124;37.910;2023-04-15T05:31:09;5.37;27.72
78896;HTU21D;68284;59.124;37.910;2023-04-15T05:33:39;5.50;27.53
78896;HTU21D;68284;59.124;37.910;2023-04-15T05:36:07;5.62;27.34
78896;HTU21D;68284;59.124;37.910;2023-04-15T05:38:34;5.71;27.21
78896;HTU21D;68284;59.124;37.910;2023-04-15T05:41:02;5.78;27.09
78896;HTU21D;68284;59.124;37.910;2023-04-15T05:43:29;5.83;26.97
78896;HTU21D;68284;59.124;37.910;2023-04-15T05:45:57;5.87;26.88
78896;HTU21D;68284;59.124;37.910;2023-04-15T05:48:25;5.96;26.78
78896;HTU21D;68284;59.124;37.910;2023-04-15T05:50:54;6.08;26.61
78896;HTU21D;68284;59.124;37.910;2023-04-15T05:53:21;6.17;26.42
78896;HTU21D;68284;59.124;37.910;2023-04-15T05:55:48;6.27;26.33
78896;HTU21D;68284;59.124;37.910;2023-04-15T05:58:16;6.36;26.19
78896;HTU21D;68284;59.124;37.910;2023-04-15T06:00:43;6.39;26.01
78896;HTU21D;68284;59.124;37.910;2023-04-15T06:03:13;6.39;25.93
78896;HTU21D;68284;59.124;37.910;2023-04-15T06:05:41;6.45;25.89
78896;HTU21D;68284;59.124;37.910;2023-04-15T06:08:11;6.55;25.78
78896;HTU21D;68284;59.124;37.910;2023-04-15T06:10:40;6.61;25.70
78896;HTU21D;68284;59.124;37.910;2023-04-15T06:13:09;6.68;25.54
78896;HTU21D;68284;59.124;37.910;2023-04-15T06:15:37;6.75;25.43
78896;HTU21D;68284;59.124;37.910;2023-04-15T06:18:05;6.80;25.36
78896;HTU21D;68284;59.124;37.910;2023-04-15T06:20:36;6.87;25.23
78896;HTU21D;68284;59.124;37.910;2023-04-15T06:23:07;6.94;25.15
78896;HTU21D;68284;59.124;37.910;2023-04-15T06:25:35;7.01;25.19
78896;HTU21D;68284;59.124;37.910;2023-04-15T06:28:06;7.08;24.96
78896;HTU21D;68284;59.124;37.910;2023-04-15T06:30:35;7.09;24.78
78896;HTU21D;68284;59.124;37.910;2023-04-15T06:33:03;7.12;24.65
78896;HTU21D;68284;59.124;37.910;2023-04-15T06:35:32;7.16;24.48
78896;HTU21D;68284;59.124;37.910;2023-04-15T06:38:01;7.18;24.34
78896;HTU21D;68284;59.124;37.910;2023-04-15T06:40:28;7.19;24.24
78896;HTU21D;68284;59.124;37.910;2023-04-15T06:42:58;7.26;24.11
78896;HTU21D;68284;59.124;37.910;2023-04-15T06:45:33;7.32;23.95
78896;HTU21D;68284;59.124;37.910;2023-04-15T06:48:01;7.38;23.82
78896;HTU21D;68284;59.124;37.910;2023-04-15T06:50:32;7.42;23.67
78896;HTU21D;68284;59.124;37.910;2023-04-15T06:53:30;7.47;23.11
78896;HTU21D;68284;59.124;37.910;2023-04-15T06:56:18;7.44;23.39
78896;HTU21D;68284;59.124;37.910;2023-04-15T07:03:56;7.62;22.85
78896;HTU21D;68284;59.124;37.910;2023-04-15T07:06:34;7.67;23.08
78896;HTU21D;68284;59.124;37.910;2023-04-15T07:09:12;7.72;22.95
78896;HTU21D;68284;59.124;37.910;2023-04-15T07:11:47;7.76;22.92
78896;HTU21D;68284;59.124;37.910;2023-04-15T07:14:20;7.87;22.82
78896;HTU21D;68284;59.124;37.910;2023-04-15T07:16:51;8.00;22.59
78896;HTU21D;68284;59.124;37.910;2023-04-15T07:19:22;8.04;22.31
78896;HTU21D;68284;59.124;37.910;2023-04-15T07:21:49;8.08;22.14
78896;HTU21D;68284;59.124;37.910;2023-04-15T07:24:18;8.14;22.04
78896;HTU21D;68284;59.124;37.910;2023-04-15T07:26:53;8.21;21.90
78896;HTU21D;68284;59.124;37.910;2023-04-15T07:29:24;8.28;21.68
78896;HTU21D;68284;59.124;37.910;2023-04-15T07:31:52;8.33;21.53
78896;HTU21D;68284;59.124;37.910;2023-04-15T07:34:20;8.46;21.37
78896;HTU21D;68284;59.124;37.910;2023-04-15T07:36:47;8.62;21.05
78896;HTU21D;68284;59.124;37.910;2023-04-15T07:39:18;8.73;20.71
78896;HTU21D;68284;59.124;37.910;2023-04-15T07:41:45;8.81;20.40
78896;HTU21D;68284;59.124;37.910;2023-04-15T07:44:13;8.90;20.14
78896;HTU21D;68284;59.124;37.910;2023-04-15T07:46:40;8.98;19.95
78896;HTU21D;68284;59.124;37.910;2023-04-15T07:49:08;9.12;19.76
78896;HTU21D;68284;59.124;37.910;2023-04-15T07:51:35;9.19;19.54
78896;HTU21D;68284;59.124;37.910;2023-04-15T07:54:03;9.24;19.38
78896;HTU21D;68284;59.124;37.910;2023-04-15T07:56:31;9.32;19.27
78896;HTU21D;68284;59.124;37.910;2023-04-15T07:58:59;9.39;19.12
78896;HTU21D;68284;59.124;37.910;2023-04-15T08:01:30;9.48;18.98
78896;HTU21D;68284;59.124;37.910;2023-04-15T08:03:58;9.57;18.93
78896;HTU21D;68284;59.124;37.910;2023-04-15T08:06:26;9.65;18.82
78896;HTU21D;68284;59.124;37.910;2023-04-15T08:08:55;9.74;18.60
78896;HTU21D;68284;59.124;37.910;2023-04-15T08:11:23;9.80;18.41
78896;HTU21D;68284;59.124;37.910;2023-04-15T08:13:51;9.91;18.23
78896;HTU21D;68284;59.124;37.910;2023-04-15T08:16:23;10.00;17.99
78896;HTU21D;68284;59.124;37.910;2023-04-15T08:18:53;10.09;17.96
78896;HTU21D;68284;59.124;37.910;2023-04-15T08:21:21;10.19;17.88
78896;HTU21D;68284;59.124;37.910;2023-04-15T08:23:51;10.30;17.74
78896;HTU21D;68284;59.124;37.910;2023-04-15T08:26:19;10.40;17.58
78896;HTU21D;68284;59.124;37.910;2023-04-15T08:28:48;10.48;17.46
78896;HTU21D;68284;59.124;37.910;2023-04-15T08:31:17;10.54;17.32
78896;HTU21D;68284;59.124;37.910;2023-04-15T08:33:48;10.60;17.27
78896;HTU21D;68284;59.124;37.910;2023-04-15T08:36:18;10.64;17.22
78896;HTU21D;68284;59.124;37.910;2023-04-15T08:38:46;10.71;16.96
78896;HTU21D;68284;59.124;37.910;2023-04-15T08:41:21;10.75;16.63
78896;HTU21D;68284;59.124;37.910;2023-04-15T08:44:03;10.75;16.57
78896;HTU21D;68284;59.124;37.910;2023-04-15T08:46:32;10.75;16.65
78896;HTU21D;68284;59.124;37.910;2023-04-15T08:49:04;10.83;16.48
78896;HTU21D;68284;59.124;37.910;2023-04-15T08:51:32;10.92;16.38
78896;HTU21D;68284;59.124;37.910;2023-04-15T08:54:01;11.00;16.19
78896;HTU21D;68284;59.124;37.910;2023-04-15T08:56:30;11.05;16.09
78896;HTU21D;68284;59.124;37.910;2023-04-15T08:59:03;11.13;16.05
78896;HTU21D;68284;59.124;37.910;2023-04-15T09:01:31;11.20;15.88
78896;HTU21D;68284;59.124;37.910;2023-04-15T09:04:01;11.26;15.77
78896;HTU21D;68284;59.124;37.910;2023-04-15T09:06:29;11.28;15.71
78896;HTU21D;68284;59.124;37.910;2023-04-15T09:08:56;11.31;15.65
78896;HTU21D;68284;59.124;37.910;2023-04-15T09:11:24;11.32;15.64
78896;HTU21D;68284;59.124;37.910;2023-04-15T09:13:51;11.30;15.61
78896;HTU21D;68284;59.124;37.910;2023-04-15T09:16:19;11.32;15.61
78896;HTU21D;68284;59.124;37.910;2023-04-15T09:18:46;11.37;15.58
78896;HTU21D;68284;59.124;37.910;2023-04-15T09:21:15;11.42;15.54
78896;HTU21D;68284;59.124;37.910;2023-04-15T09:23:56;11.47;15.54
78896;HTU21D;68284;59.124;37.910;2023-04-15T09:26:36;11.54;15.60
78896;HTU21D;68284;59.124;37.910;2023-04-15T09:29:04;11.62;15.69
78896;HTU21D;68284;59.124;37.910;2023-04-15T09:31:34;11.67;15.75
78896;HTU21D;68284;59.124;37.910;2023-04-15T09:34:01;11.70;15.60
78896;HTU21D;68284;59.124;37.910;2023-04-15T09:39:21;11.69;15.54
78896;HTU21D;68284;59.124;37.910;2023-04-15T09:42:07;11.64;15.26
78896;HTU21D;68284;59.124;37.910;2023-04-15T09:44:36;11.60;15.43
78896;HTU21D;68284;59.124;37.910;2023-04-15T09:47:04;11.57;15.39
78896;HTU21D;68284;59.124;37.910;2023-04-15T09:49:32;11.53;15.39
78896;HTU21D;68284;59.124;37.910;2023-04-15T09:52:00;11.53;15.43
78896;HTU21D;68284;59.124;37.910;2023-04-15T09:54:35;11.58;15.40
78896;HTU21D;68284;59.124;37.910;2023-04-15T09:57:07;11.59;15.40
78896;HTU21D;68284;59.124;37.910;2023-04-15T09:59:37;11.61;15.39
78896;HTU21D;68284;59.124;37.910;2023-04-15T10:02:05;11.58;15.37
78896;HTU21D;68284;59.124;37.910;2023-04-15T10:04:35;11.60;15.39
78896;HTU21D;68284;59.124;37.910;2023-04-15T10:07:05;11.61;15.37
78896;HTU21D;68284;59.124;37.910;2023-04-15T10:09:35;11.66;15.29
78896;HTU21D;68284;59.124;37.910;2023-04-15T10:12:04;11.72;15.25
78896;HTU21D;68284;59.124;37.910;2023-04-15T10:14:33;11.77;15.26
78896;HTU21D;68284;59.124;37.910;2023-04-15T10:17:03;11.85;15.23
78896;HTU21D;68284;59.124;37.910;2023-04-15T10:19:32;11.93;15.21
78896;HTU21D;68284;59.124;37.910;2023-04-15T10:22:00;12.07;15.17
78896;HTU21D;68284;59.124;37.910;2023-04-15T10:24:32;12.29;15.00
78896;HTU21D;68284;59.124;37.910;2023-04-15T10:27:02;12.48;14.88
78896;HTU21D;68284;59.124;37.910;2023-04-15T10:29:30;12.69;14.73
78896;HTU21D;68284;59.124;37.910;2023-04-15T10:31:59;12.91;14.65
78896;HTU21D;68284;59.124;37.910;2023-04-15T10:34:28;13.20;14.58
78896;HTU21D;68284;59.124;37.910;2023-04-15T10:37:00;13.55;14.48
78896;HTU21D;68284;59.124;37.910;2023-04-15T10:42:12;14.43;14.10
78896;HTU21D;68284;59.124;37.910;2023-04-15T10:44:43;14.83;14.07
78896;HTU21D;68284;59.124;37.910;2023-04-15T10:47:13;15.26;13.82
78896;HTU21D;68284;59.124;37.910;2023-04-15T10:49:48;15.61;13.36
78896;HTU21D;68284;59.124;37.910;2023-04-15T10:52:22;15.90;13.42
78896;HTU21D;68284;59.124;37.910;2023-04-15T10:54:49;16.30;13.29
78896;HTU21D;68284;59.124;37.910;2023-04-15T10:57:34;16.74;12.74
78896;HTU21D;68284;59.124;37.910;2023-04-15T11:00:14;17.13;12.33
78896;HTU21D;68284;59.124;37.910;2023-04-15T11:02:45;17.45;12.38
78896;HTU21D;68284;59.124;37.910;2023-04-15T11:05:18;17.90;12.14
78896;HTU21D;68284;59.124;37.910;2023-04-15T11:07:50;18.37;11.86
78896;HTU21D;68284;59.124;37.910;2023-04-15T11:13:15;19.10;10.90
78896;HTU21D;68284;59.124;37.910;2023-04-15T11:15:48;19.23;10.84
78896;HTU21D;68284;59.124;37.910;2023-04-15T11:18:17;19.40;10.62
78896;HTU21D;68284;59.124;37.910;2023-04-15T11:20:53;19.67;10.11
78896;HTU21D;68284;59.124;37.910;2023-04-15T11:23:39;19.85;9.80
78896;HTU21D;68284;59.124;37.910;2023-04-15T11:26:10;20.00;10.05
78896;HTU21D;68284;59.124;37.910;2023-04-15T11:28:43;20.28;9.79
78896;HTU21D;68284;59.124;37.910;2023-04-15T11:36:26;21.17;9.14
78896;HTU21D;68284;59.124;37.910;2023-04-15T11:38:54;21.34;9.74
78896;HTU21D;68284;59.124;37.910;2023-04-15T11:41:23;21.51;9.39
78896;HTU21D;68284;59.124;37.910;2023-04-15T11:43:51;21.69;8.82
78896;HTU21D;68284;59.124;37.910;2023-04-15T11:46:19;21.78;8.60
78896;HTU21D;68284;59.124;37.910;2023-04-15T11:48:48;21.83;8.33
78896;HTU21D;68284;59.124;37.910;2023-04-15T11:51:18;21.82;8.26
78896;HTU21D;68284;59.124;37.910;2023-04-15T11:53:48;21.90;8.11
78896;HTU21D;68284;59.124;37.910;2023-04-15T11:58:44;22.20;7.98
78896;HTU21D;68284;59.124;37.910;2023-04-15T12:01:12;22.34;7.81
78896;HTU21D;68284;59.124;37.910;2023-04-15T12:03:42;22.57;7.69
78896;HTU21D;68284;59.124;37.910;2023-04-15T12:06:15;22.79;7.28
78896;HTU21D;68284;59.124;37.910;2023-04-15T12:08:58;22.80;7.31
78896;HTU21D;68284;59.124;37.910;2023-04-15T12:11:31;22.73;7.21
78896;HTU21D;68284;59.124;37.910;2023-04-15T12:14:09;22.77;7.17
78896;HTU21D;68284;59.124;37.910;2023-04-15T12:17:00;23.03;7.18
78896;HTU21D;68284;59.124;37.910;2023-04-15T12:19:38;23.30;7.10
78896;HTU21D;68284;59.124;37.910;2023-04-15T12:22:14;23.57;7.01
78896;HTU21D;68284;59.124;37.910;2023-04-15T12:24:43;23.74;6.81
78896;HTU21D;68284;59.124;37.910;2023-04-15T12:27:13;23.95;6.76
78896;HTU21D;68284;59.124;37.910;2023-04-15T12:29:41;24.20;6.63
78896;HTU21D;68284;59.124;37.910;2023-04-15T12:32:14;24.50;6.34
78896;HTU21D;68284;59.124;37.910;2023-04-15T12:34:49;24.95;6.12
78896;HTU21D;68284;59.124;37.910;2023-04-15T12:37:17;25.37;6.05
78896;HTU21D;68284;59.124;37.910;2023-04-15T12:39:47;25.72;5.70
78896;HTU21D;68284;59.124;37.910;2023-04-15T12:42:17;25.90;5.57
78896;HTU21D;68284;59.124;37.910;2023-04-15T12:44:44;25.96;5.60
78896;HTU21D;68284;59.124;37.910;2023-04-15T12:47:11;26.02;5.41
78896;HTU21D;68284;59.124;37.910;2023-04-15T12:49:39;25.95;5.41
78896;HTU21D;68284;59.124;37.910;2023-04-15T12:52:06;25.96;5.38
78896;HTU21D;68284;59.124;37.910;2023-04-15T12:54:32;26.06;5.30
78896;HTU21D;68284;59.124;37.910;2023-04-15T12:57:00;26.34;5.15
78896;HTU21D;68284;59.124;37.910;2023-04-15T12:59:27;26.60;4.98
78896;HTU21D;68284;59.124;37.910;2023-04-15T13:01:53;26.80;4.89
78896;HTU21D;68284;59.124;37.910;2023-04-15T13:04:22;26.91;4.83
78896;HTU21D;68284;59.124;37.910;2023-04-15T13:06:50;27.05;4.80
78896;HTU21D;68284;59.124;37.910;2023-04-15T13:09:17;27.17;4.60
78896;HTU21D;68284;59.124;37.910;2023-04-15T13:11:44;27.30;4.51
78896;HTU21D;68284;59.124;37.910;2023-04-15T13:14:11;27.46;4.33
78896;HTU21D;68284;59.124;37.910;2023-04-15T13:16:38;27.46;4.22
78896;HTU21D;68284;59.124;37.910;2023-04-15T13:19:04;27.32;4.21
78896;HTU21D;68284;59.124;37.910;2023-04-15T13:21:32;27.23;4.28
78896;HTU21D;68284;59.124;37.910;2023-04-15T13:24:10;27.27;4.36
78896;HTU21D;68284;59.124;37.910;2023-04-15T13:26:37;27.27;4.31
78896;HTU21D;68284;59.124;37.910;2023-04-15T13:29:05;27.12;4.22
78896;HTU21D;68284;59.124;37.910;2023-04-15T13:31:32;26.95;4.32
78896;HTU21D;68284;59.124;37.910;2023-04-15T13:34:02;26.69;4.31
78896;HTU21D;68284;59.124;37.910;2023-04-15T13:36:30;26.46;4.28
78896;HTU21D;68284;59.124;37.910;2023-04-15T13:38:57;26.13;4.28
78896;HTU21D;68284;59.124;37.910;2023-04-15T13:41:25;25.64;4.40
78896;HTU21D;68284;59.124;37.910;2023-04-15T13:43:52;25.05;4.60
78896;HTU21D;68284;59.124;37.910;2023-04-15T13:46:19;24.58;4.94
78896;HTU21D;68284;59.124;37.910;2023-04-15T13:48:48;24.23;5.12
78896;HTU21D;68284;59.124;37.910;2023-04-15T13:51:14;23.94;5.32
78896;HTU21D;68284;59.124;37.910;2023-04-15T13:53:41;23.66;5.47
78896;HTU21D;68284;59.124;37.910;2023-04-15T13:56:07;23.41;5.57
78896;HTU21D;68284;59.124;37.910;2023-04-15T13:58:36;23.11;5.67
78896;HTU21D;68284;59.124;37.910;2023-04-15T14:01:04;22.77;5.76
78896;HTU21D;68284;59.124;37.910;2023-04-15T14:03:31;22.37;6.03
78896;HTU21D;68284;59.124;37.910;2023-04-15T14:05:58;21.96;6.19
78896;HTU21D;68284;59.124;37.910;2023-04-15T14:08:24;21.54;6.44
78896;HTU21D;68284;59.124;37.910;2023-04-15T14:10:51;21.10;6.71
78896;HTU21D;68284;59.124;37.910;2023-04-15T14:13:17;20.63;6.97
78896;HTU21D;68284;59.124;37.910;2023-04-15T14:15:45;20.17;7.14
78896;HTU21D;68284;59.124;37.910;2023-04-15T14:18:13;19.75;7.43
78896;HTU21D;68284;59.124;37.910;2023-04-15T14:20:39;19.36;7.69
78896;HTU21D;68284;59.124;37.910;2023-04-15T14:23:06;18.99;8.02
78896;HTU21D;68284;59.124;37.910;2023-04-15T14:25:34;18.59;8.35
78896;HTU21D;68284;59.124;37.910;2023-04-15T14:28:01;18.21;8.72
78896;HTU21D;68284;59.124;37.910;2023-04-15T14:30:29;17.87;8.95
78896;HTU21D;68284;59.124;37.910;2023-04-15T14:32:55;17.62;9.09
78896;HTU21D;68284;59.124;37.910;2023-04-15T14:35:22;17.40;9.28
78896;HTU21D;68284;59.124;37.910;2023-04-15T14:37:54;17.18;9.55
78896;HTU21D;68284;59.124;37.910;2023-04-15T14:40:22;16.92;9.69
78896;HTU21D;68284;59.124;37.910;2023-04-15T14:42:49;16.60;9.88
78896;HTU21D;68284;59.124;37.910;2023-04-15T14:45:15;16.31;10.16
78896;HTU21D;68284;59.124;37.910;2023-04-15T14:47:46;16.05;10.66
78896;HTU21D;68284;59.124;37.910;2023-04-15T14:50:12;15.78;11.03
78896;HTU21D;68284;59.124;37.910;2023-04-15T14:52:39;15.51;11.34
78896;HTU21D;68284;59.124;37.910;2023-04-15T14:55:09;15.19;11.68
78896;HTU21D;68284;59.124;37.910;2023-04-15T14:57:37;14.85;11.97
78896;HTU21D;68284;59.124;37.910;2023-04-15T15:00:06;14.54;12.25
78896;HTU21D;68284;59.124;37.910;2023-04-15T15:02:41;14.30;12.43
78896;HTU21D;68284;59.124;37.910;2023-04-15T15:05:09;14.13;12.68
78896;HTU21D;68284;59.124;37.910;2023-04-15T15:07:37;13.97;12.86
78896;HTU21D;68284;59.124;37.910;2023-04-15T15:10:06;13.78;12.93
78896;HTU21D;68284;59.124;37.910;2023-04-15T15:12:33;13.56;13.03
78896;HTU21D;68284;59.124;37.910;2023-04-15T15:15:02;13.35;13.16
78896;HTU21D;68284;59.124;37.910;2023-04-15T15:17:30;13.17;13.23
78896;HTU21D;68284;59.124;37.910;2023-04-15T15:19:57;12.95;13.31
78896;HTU21D;68284;59.124;37.910;2023-04-15T15:22:23;12.77;13.33
78896;HTU21D;68284;59.124;37.910;2023-04-15T15:24:51;12.58;13.23
78896;HTU21D;68284;59.124;37.910;2023-04-15T15:27:19;12.37;13.51
78896;HTU21D;68284;59.124;37.910;2023-04-15T15:29:46;12.17;13.78
78896;HTU21D;68284;59.124;37.910;2023-04-15T15:32:12;11.99;13.97
78896;HTU21D;68284;59.124;37.910;2023-04-15T15:34:38;11.87;14.20
78896;HTU21D;68284;59.124;37.910;2023-04-15T15:37:05;11.76;14.41
78896;HTU21D;68284;59.124;37.910;2023-04-15T15:39:31;11.68;14.52
78896;HTU21D;68284;59.124;37.910;2023-04-15T15:41:57;11.57;14.61
78896;HTU21D;68284;59.124;37.910;2023-04-15T15:44:23;11.47;14.68
78896;HTU21D;68284;59.124;37.910;2023-04-15T15:46:49;11.38;14.76